sensor_id;sensor_type;location;lat;lon;timestamp;P1;durP1;ratioP1;P2;durP2;ratioP2
38851;SDS011;24605;50.092;9.182;2022-08-21T00:01:25;11.05;;;6.32;;
38851;SDS011;24605;50.092;9.182;2022-08-21T00:03:53;9.70;;;5.90;;
38851;SDS011;24605;50.092;9.182;2022-08-21T00:06:20;8.35;;;5.70;;
38851;SDS011;24605;50.092;9.182;2022-08-21T00:08:50;9.55;;;6.00;;
38851;SDS011;24605;50.092;9.182;2022-08-21T00:11:16;10.50;;;6.03;;
38851;SDS011;24605;50.092;9.182;2022-08-21T00:13:43;9.90;;;6.30;;
38851;SDS011;24605;50.092;9.182;2022-08-21T00:16:10;11.98;;;7.03;;
38851;SDS011;24605;50.092;9.182;2022-08-21T00:18:37;11.40;;;6.47;;
38851;SDS011;24605;50.092;9.182;2022-08-21T00:21:04;9.75;;;6.20;;
38851;SDS011;24605;50.092;9.182;2022-08-21T00:23:32;11.45;;;6.28;;
38851;SDS011;24605;50.092;9.182;2022-08-21T00:26:01;10.00;;;6.55;;
38851;SDS011;24605;50.092;9.182;2022-08-21T00:28:28;10.02;;;7.05;;
38851;SDS011;24605;50.092;9.182;2022-08-21T00:30:54;9.45;;;6.55;;
38851;SDS011;24605;50.092;9.182;2022-08-21T00:33:21;10.10;;;6.82;;
38851;SDS011;24605;50.092;9.182;2022-08-21T00:35:48;11.63;;;7.05;;
38851;SDS011;24605;50.092;9.182;2022-08-21T00:38:15;10.23;;;6.55;;
38851;SDS011;24605;50.092;9.182;2022-08-21T00:40:43;10.95;;;6.90;;
38851;SDS011;24605;50.092;9.182;2022-08-21T00:43:15;10.60;;;7.13;;
38851;SDS011;24605;50.092;9.182;2022-08-21T00:45:43;12.27;;;7.43;;
38851;SDS011;24605;50.092;9.182;2022-08-21T00:48:09;12.75;;;7.32;;
38851;SDS011;24605;50.092;9.182;2022-08-21T00:50:38;11.43;;;6.72;;
38851;SDS011;24605;50.092;9.182;2022-08-21T00:53:08;11.02;;;6.68;;
38851;SDS011;24605;50.092;9.182;2022-08-21T00:55:36;11.07;;;6.95;;
38851;SDS011;24605;50.092;9.182;2022-08-21T00:58:04;9.57;;;6.85;;
38851;SDS011;24605;50.092;9.182;2022-08-21T01:00:36;11.70;;;7.50;;
38851;SDS011;24605;50.092;9.182;2022-08-21T01:03:06;12.00;;;6.95;;
38851;SDS011;24605;50.092;9.182;2022-08-21T01:05:35;11.80;;;7.38;;
38851;SDS011;24605;50.092;9.182;2022-08-21T01:08:02;10.30;;;6.72;;
38851;SDS011;24605;50.092;9.182;2022-08-21T01:10:30;10.80;;;7.00;;
38851;SDS011;24605;50.092;9.182;2022-08-21T01:12:56;10.02;;;7.05;;
38851;SDS011;24605;50.092;9.182;2022-08-21T01:15:25;9.93;;;6.75;;
38851;SDS011;24605;50.092;9.182;2022-08-21T01:17:56;9.88;;;7.25;;
38851;SDS011;24605;50.092;9.182;2022-08-21T01:20:23;9.48;;;7.07;;
38851;SDS011;24605;50.092;9.182;2022-08-21T01:22:51;9.88;;;7.28;;
38851;SDS011;24605;50.092;9.182;2022-08-21T01:25:17;9.13;;;7.00;;
38851;SDS011;24605;50.092;9.182;2022-08-21T01:27:45;9.75;;;7.25;;
38851;SDS011;24605;50.092;9.182;2022-08-21T01:30:14;10.52;;;7.30;;
38851;SDS011;24605;50.092;9.182;2022-08-21T01:32:42;10.73;;;7.82;;
38851;SDS011;24605;50.092;9.182;2022-08-21T01:35:10;11.00;;;7.65;;
38851;SDS011;24605;50.092;9.182;2022-08-21T01:37:37;8.82;;;6.88;;
38851;SDS011;24605;50.092;9.182;2022-08-21T01:40:05;9.00;;;6.85;;
38851;SDS011;24605;50.092;9.182;2022-08-21T01:42:33;9.13;;;7.03;;
38851;SDS011;24605;50.092;9.182;2022-08-21T01:45:00;10.95;;;7.35;;
38851;SDS011;24605;50.092;9.182;2022-08-21T01:47:27;10.45;;;7.53;;
38851;SDS011;24605;50.092;9.182;2022-08-21T01:49:54;9.68;;;7.50;;
38851;SDS011;24605;50.092;9.182;2022-08-21T01:52:20;9.13;;;6.90;;
38851;SDS011;24605;50.092;9.182;2022-08-21T01:54:47;11.07;;;7.47;;
38851;SDS011;24605;50.092;9.182;2022-08-21T01:57:15;10.88;;;7.60;;
38851;SDS011;24605;50.092;9.182;2022-08-21T01:59:41;11.00;;;7.68;;
38851;SDS011;24605;50.092;9.182;2022-08-21T02:02:08;10.52;;;7.63;;
38851;SDS011;24605;50.092;9.182;2022-08-21T02:04:34;10.20;;;8.00;;
38851;SDS011;24605;50.092;9.182;2022-08-21T02:07:01;11.35;;;7.78;;
38851;SDS011;24605;50.092;9.182;2022-08-21T02:09:28;12.75;;;8.55;;
38851;SDS011;24605;50.092;9.182;2022-08-21T02:11:55;11.63;;;7.65;;
38851;SDS011;24605;50.092;9.182;2022-08-21T02:14:23;15.50;;;8.40;;
38851;SDS011;24605;50.092;9.182;2022-08-21T02:16:50;11.35;;;7.57;;
38851;SDS011;24605;50.092;9.182;2022-08-21T02:19:16;9.70;;;7.53;;
38851;SDS011;24605;50.092;9.182;2022-08-21T02:21:43;11.93;;;8.38;;
38851;SDS011;24605;50.092;9.182;2022-08-21T02:24:10;9.93;;;7.50;;
38851;SDS011;24605;50.092;9.182;2022-08-21T02:26:37;10.10;;;7.97;;
38851;SDS011;24605;50.092;9.182;2022-08-21T02:29:04;10.32;;;7.57;;
38851;SDS011;24605;50.092;9.182;2022-08-21T02:31:32;12.55;;;7.68;;
38851;SDS011;24605;50.092;9.182;2022-08-21T02:33:58;9.80;;;7.25;;
38851;SDS011;24605;50.092;9.182;2022-08-21T02:36:25;11.55;;;8.00;;
38851;SDS011;24605;50.092;9.182;2022-08-21T02:38:52;9.98;;;7.40;;
38851;SDS011;24605;50.092;9.182;2022-08-21T02:41:19;13.65;;;8.43;;
38851;SDS011;24605;50.092;9.182;2022-08-21T02:43:47;10.68;;;7.70;;
38851;SDS011;24605;50.092;9.182;2022-08-21T02:46:16;11.18;;;7.65;;
38851;SDS011;24605;50.092;9.182;2022-08-21T02:48:45;12.18;;;8.77;;
38851;SDS011;24605;50.092;9.182;2022-08-21T02:51:13;11.27;;;8.00;;
38851;SDS011;24605;50.092;9.182;2022-08-21T02:53:42;11.63;;;7.80;;
38851;SDS011;24605;50.092;9.182;2022-08-21T02:56:10;11.82;;;8.45;;
38851;SDS011;24605;50.092;9.182;2022-08-21T02:58:40;13.82;;;8.07;;
38851;SDS011;24605;50.092;9.182;2022-08-21T03:01:09;11.60;;;8.40;;
38851;SDS011;24605;50.092;9.182;2022-08-21T03:03:37;13.25;;;9.32;;
38851;SDS011;24605;50.092;9.182;2022-08-21T03:06:08;11.00;;;8.57;;
38851;SDS011;24605;50.092;9.182;2022-08-21T03:08:36;13.20;;;9.07;;
38851;SDS011;24605;50.092;9.182;2022-08-21T03:11:03;12.25;;;8.40;;
38851;SDS011;24605;50.092;9.182;2022-08-21T03:13:30;11.10;;;8.23;;
38851;SDS011;24605;50.092;9.182;2022-08-21T03:15:58;12.07;;;8.90;;
38851;SDS011;24605;50.092;9.182;2022-08-21T03:18:24;12.25;;;8.52;;
38851;SDS011;24605;50.092;9.182;2022-08-21T03:20:51;13.30;;;8.13;;
38851;SDS011;24605;50.092;9.182;2022-08-21T03:23:19;16.10;;;8.50;;
38851;SDS011;24605;50.092;9.182;2022-08-21T03:25:47;16.13;;;9.25;;
38851;SDS011;24605;50.092;9.182;2022-08-21T03:28:17;12.40;;;8.77;;
38851;SDS011;24605;50.092;9.182;2022-08-21T03:30:49;12.63;;;8.68;;
38851;SDS011;24605;50.092;9.182;2022-08-21T03:33:17;13.85;;;8.43;;
38851;SDS011;24605;50.092;9.182;2022-08-21T03:35:45;12.27;;;8.15;;
38851;SDS011;24605;50.092;9.182;2022-08-21T03:38:14;13.40;;;8.93;;
38851;SDS011;24605;50.092;9.182;2022-08-21T03:40:42;11.77;;;8.63;;
38851;SDS011;24605;50.092;9.182;2022-08-21T03:43:09;11.88;;;8.68;;
38851;SDS011;24605;50.092;9.182;2022-08-21T03:45:35;12.18;;;8.50;;
38851;SDS011;24605;50.092;9.182;2022-08-21T03:48:03;11.05;;;7.80;;
38851;SDS011;24605;50.092;9.182;2022-08-21T03:50:33;13.18;;;8.63;;
38851;SDS011;24605;50.092;9.182;2022-08-21T03:53:02;12.32;;;8.23;;
38851;SDS011;24605;50.092;9.182;2022-08-21T03:55:29;14.23;;;9.48;;
38851;SDS011;24605;50.092;9.182;2022-08-21T03:57:57;15.25;;;8.68;;
38851;SDS011;24605;50.092;9.182;2022-08-21T04:00:24;15.07;;;8.60;;
38851;SDS011;24605;50.092;9.182;2022-08-21T04:02:51;10.80;;;8.35;;
38851;SDS011;24605;50.092;9.182;2022-08-21T04:05:18;14.00;;;8.48;;
38851;SDS011;24605;50.092;9.182;2022-08-21T04:07:53;12.77;;;8.68;;
38851;SDS011;24605;50.092;9.182;2022-08-21T04:10:21;13.93;;;8.23;;
38851;SDS011;24605;50.092;9.182;2022-08-21T04:12:48;13.15;;;8.68;;
38851;SDS011;24605;50.092;9.182;2022-08-21T04:15:16;14.65;;;8.65;;
38851;SDS011;24605;50.092;9.182;2022-08-21T04:17:43;11.65;;;8.55;;
38851;SDS011;24605;50.092;9.182;2022-08-21T04:20:10;12.50;;;8.45;;
38851;SDS011;24605;50.092;9.182;2022-08-21T04:22:37;11.73;;;8.60;;
38851;SDS011;24605;50.092;9.182;2022-08-21T04:25:04;11.75;;;8.07;;
38851;SDS011;24605;50.092;9.182;2022-08-21T04:27:32;12.13;;;9.27;;
38851;SDS011;24605;50.092;9.182;2022-08-21T04:29:59;13.88;;;8.45;;
38851;SDS011;24605;50.092;9.182;2022-08-21T04:32:29;12.68;;;8.88;;
38851;SDS011;24605;50.092;9.182;2022-08-21T04:34:59;14.65;;;9.20;;
38851;SDS011;24605;50.092;9.182;2022-08-21T04:37:27;12.45;;;9.35;;
38851;SDS011;24605;50.092;9.182;2022-08-21T04:39:53;13.75;;;8.40;;
38851;SDS011;24605;50.092;9.182;2022-08-21T04:42:21;11.38;;;8.40;;
38851;SDS011;24605;50.092;9.182;2022-08-21T04:44:48;12.77;;;8.88;;
38851;SDS011;24605;50.092;9.182;2022-08-21T04:47:15;14.60;;;8.52;;
38851;SDS011;24605;50.092;9.182;2022-08-21T04:49:44;13.00;;;9.65;;
38851;SDS011;24605;50.092;9.182;2022-08-21T04:52:11;14.20;;;9.07;;
38851;SDS011;24605;50.092;9.182;2022-08-21T04:54:41;13.73;;;8.77;;
38851;SDS011;24605;50.092;9.182;2022-08-21T04:57:10;12.90;;;8.90;;
38851;SDS011;24605;50.092;9.182;2022-08-21T04:59:38;14.02;;;9.02;;
38851;SDS011;24605;50.092;9.182;2022-08-21T05:02:09;12.43;;;9.05;;
38851;SDS011;24605;50.092;9.182;2022-08-21T05:04:37;13.02;;;9.38;;
38851;SDS011;24605;50.092;9.182;2022-08-21T05:07:10;13.20;;;9.23;;
38851;SDS011;24605;50.092;9.182;2022-08-21T05:09:39;12.70;;;8.77;;
38851;SDS011;24605;50.092;9.182;2022-08-21T05:12:06;12.30;;;9.00;;
38851;SDS011;24605;50.092;9.182;2022-08-21T05:14:33;12.95;;;9.02;;
38851;SDS011;24605;50.092;9.182;2022-08-21T05:17:00;13.82;;;8.93;;
38851;SDS011;24605;50.092;9.182;2022-08-21T05:19:26;12.65;;;8.65;;
38851;SDS011;24605;50.092;9.182;2022-08-21T05:21:53;12.73;;;9.10;;
38851;SDS011;24605;50.092;9.182;2022-08-21T05:24:21;15.95;;;8.80;;
38851;SDS011;24605;50.092;9.182;2022-08-21T05:26:48;12.73;;;9.32;;
38851;SDS011;24605;50.092;9.182;2022-08-21T05:29:15;12.80;;;8.65;;
38851;SDS011;24605;50.092;9.182;2022-08-21T05:31:42;13.35;;;9.68;;
38851;SDS011;24605;50.092;9.182;2022-08-21T05:34:09;12.68;;;8.35;;
38851;SDS011;24605;50.092;9.182;2022-08-21T05:36:36;12.23;;;8.43;;
38851;SDS011;24605;50.092;9.182;2022-08-21T05:39:02;10.82;;;8.27;;
38851;SDS011;24605;50.092;9.182;2022-08-21T05:41:31;12.95;;;8.57;;
38851;SDS011;24605;50.092;9.182;2022-08-21T05:43:57;11.75;;;8.57;;
38851;SDS011;24605;50.092;9.182;2022-08-21T05:46:24;10.70;;;8.43;;
38851;SDS011;24605;50.092;9.182;2022-08-21T05:48:50;11.13;;;8.35;;
38851;SDS011;24605;50.092;9.182;2022-08-21T05:51:17;12.20;;;8.52;;
38851;SDS011;24605;50.092;9.182;2022-08-21T05:53:43;11.35;;;8.20;;
38851;SDS011;24605;50.092;9.182;2022-08-21T05:56:11;12.32;;;8.32;;
38851;SDS011;24605;50.092;9.182;2022-08-21T05:58:40;13.27;;;8.25;;
38851;SDS011;24605;50.092;9.182;2022-08-21T06:01:07;12.45;;;8.38;;
38851;SDS011;24605;50.092;9.182;2022-08-21T06:03:35;14.55;;;9.07;;
38851;SDS011;24605;50.092;9.182;2022-08-21T06:06:03;11.77;;;8.75;;
38851;SDS011;24605;50.092;9.182;2022-08-21T06:08:30;11.85;;;8.90;;
38851;SDS011;24605;50.092;9.182;2022-08-21T06:10:58;11.00;;;8.45;;
38851;SDS011;24605;50.092;9.182;2022-08-21T06:13:25;14.82;;;9.20;;
38851;SDS011;24605;50.092;9.182;2022-08-21T06:16:01;10.55;;;8.35;;
38851;SDS011;24605;50.092;9.182;2022-08-21T06:18:30;11.63;;;8.95;;
38851;SDS011;24605;50.092;9.182;2022-08-21T06:20:56;12.10;;;8.35;;
38851;SDS011;24605;50.092;9.182;2022-08-21T06:23:23;13.07;;;8.90;;
38851;SDS011;24605;50.092;9.182;2022-08-21T06:25:49;11.77;;;8.10;;
38851;SDS011;24605;50.092;9.182;2022-08-21T06:28:16;12.77;;;8.25;;
38851;SDS011;24605;50.092;9.182;2022-08-21T06:30:42;11.35;;;8.50;;
38851;SDS011;24605;50.092;9.182;2022-08-21T06:33:10;13.98;;;8.57;;
38851;SDS011;24605;50.092;9.182;2022-08-21T06:35:37;11.93;;;8.20;;
38851;SDS011;24605;50.092;9.182;2022-08-21T06:38:04;13.75;;;8.98;;
38851;SDS011;24605;50.092;9.182;2022-08-21T06:40:30;10.35;;;7.75;;
38851;SDS011;24605;50.092;9.182;2022-08-21T06:42:57;11.57;;;8.50;;
38851;SDS011;24605;50.092;9.182;2022-08-21T06:45:25;11.00;;;7.82;;
38851;SDS011;24605;50.092;9.182;2022-08-21T06:47:51;10.80;;;7.47;;
38851;SDS011;24605;50.092;9.182;2022-08-21T06:50:19;12.80;;;8.00;;
38851;SDS011;24605;50.092;9.182;2022-08-21T06:52:46;11.27;;;8.50;;
38851;SDS011;24605;50.092;9.182;2022-08-21T06:55:12;12.95;;;8.48;;
38851;SDS011;24605;50.092;9.182;2022-08-21T06:57:39;14.05;;;8.52;;
38851;SDS011;24605;50.092;9.182;2022-08-21T07:00:06;10.73;;;7.68;;
38851;SDS011;24605;50.092;9.182;2022-08-21T07:02:34;11.63;;;8.10;;
38851;SDS011;24605;50.092;9.182;2022-08-21T07:05:01;12.27;;;8.35;;
38851;SDS011;24605;50.092;9.182;2022-08-21T07:07:30;11.90;;;7.97;;
38851;SDS011;24605;50.092;9.182;2022-08-21T07:09:56;10.25;;;7.85;;
38851;SDS011;24605;50.092;9.182;2022-08-21T07:12:23;10.13;;;8.13;;
38851;SDS011;24605;50.092;9.182;2022-08-21T07:14:50;12.07;;;7.40;;
38851;SDS011;24605;50.092;9.182;2022-08-21T07:17:17;12.00;;;8.10;;
38851;SDS011;24605;50.092;9.182;2022-08-21T07:19:43;10.48;;;7.55;;
38851;SDS011;24605;50.092;9.182;2022-08-21T07:22:10;10.70;;;7.50;;
38851;SDS011;24605;50.092;9.182;2022-08-21T07:24:39;10.02;;;7.63;;
38851;SDS011;24605;50.092;9.182;2022-08-21T07:27:06;11.15;;;7.70;;
38851;SDS011;24605;50.092;9.182;2022-08-21T07:29:32;11.55;;;7.10;;
38851;SDS011;24605;50.092;9.182;2022-08-21T07:31:59;14.93;;;8.23;;
38851;SDS011;24605;50.092;9.182;2022-08-21T07:34:26;12.68;;;7.70;;
38851;SDS011;24605;50.092;9.182;2022-08-21T07:36:52;11.02;;;7.55;;
38851;SDS011;24605;50.092;9.182;2022-08-21T07:39:19;9.60;;;7.43;;
38851;SDS011;24605;50.092;9.182;2022-08-21T07:41:46;11.10;;;7.88;;
38851;SDS011;24605;50.092;9.182;2022-08-21T07:44:13;14.20;;;7.63;;
38851;SDS011;24605;50.092;9.182;2022-08-21T07:46:39;10.57;;;7.30;;
38851;SDS011;24605;50.092;9.182;2022-08-21T07:49:06;9.75;;;6.93;;
38851;SDS011;24605;50.092;9.182;2022-08-21T07:51:33;12.02;;;6.70;;
38851;SDS011;24605;50.092;9.182;2022-08-21T07:54:00;9.95;;;7.18;;
38851;SDS011;24605;50.092;9.182;2022-08-21T07:56:27;12.05;;;6.45;;
38851;SDS011;24605;50.092;9.182;2022-08-21T07:58:57;11.32;;;6.88;;
38851;SDS011;24605;50.092;9.182;2022-08-21T08:01:24;10.60;;;6.70;;
38851;SDS011;24605;50.092;9.182;2022-08-21T08:03:51;9.10;;;6.40;;
38851;SDS011;24605;50.092;9.182;2022-08-21T08:06:18;10.63;;;6.50;;
38851;SDS011;24605;50.092;9.182;2022-08-21T08:08:44;10.95;;;6.60;;
38851;SDS011;24605;50.092;9.182;2022-08-21T08:11:12;11.50;;;6.20;;
38851;SDS011;24605;50.092;9.182;2022-08-21T08:13:40;11.90;;;5.65;;
38851;SDS011;24605;50.092;9.182;2022-08-21T08:16:09;9.05;;;6.05;;
38851;SDS011;24605;50.092;9.182;2022-08-21T08:18:36;8.18;;;6.60;;
38851;SDS011;24605;50.092;9.182;2022-08-21T08:21:03;10.57;;;5.88;;
38851;SDS011;24605;50.092;9.182;2022-08-21T08:23:30;10.80;;;6.30;;
38851;SDS011;24605;50.092;9.182;2022-08-21T08:25:57;9.98;;;5.60;;
38851;SDS011;24605;50.092;9.182;2022-08-21T08:28:23;10.48;;;6.05;;
38851;SDS011;24605;50.092;9.182;2022-08-21T08:30:50;10.85;;;4.90;;
38851;SDS011;24605;50.092;9.182;2022-08-21T08:33:18;8.60;;;5.25;;
38851;SDS011;24605;50.092;9.182;2022-08-21T08:35:46;9.85;;;5.55;;
38851;SDS011;24605;50.092;9.182;2022-08-21T08:38:14;9.85;;;5.50;;
38851;SDS011;24605;50.092;9.182;2022-08-21T08:40:44;8.18;;;4.90;;
38851;SDS011;24605;50.092;9.182;2022-08-21T08:43:16;9.65;;;5.22;;
38851;SDS011;24605;50.092;9.182;2022-08-21T08:45:44;10.60;;;5.07;;
38851;SDS011;24605;50.092;9.182;2022-08-21T08:48:14;10.30;;;5.15;;
38851;SDS011;24605;50.092;9.182;2022-08-21T08:50:58;9.98;;;5.18;;
38851;SDS011;24605;50.092;9.182;2022-08-21T08:53:28;9.65;;;5.20;;
38851;SDS011;24605;50.092;9.182;2022-08-21T08:55:57;8.32;;;4.88;;
38851;SDS011;24605;50.092;9.182;2022-08-21T08:58:28;9.63;;;5.30;;
38851;SDS011;24605;50.092;9.182;2022-08-21T09:00:57;17.80;;;5.57;;
38851;SDS011;24605;50.092;9.182;2022-08-21T09:03:25;8.20;;;4.65;;
38851;SDS011;24605;50.092;9.182;2022-08-21T09:05:55;10.10;;;5.18;;
38851;SDS011;24605;50.092;9.182;2022-08-21T09:08:31;12.45;;;4.80;;
38851;SDS011;24605;50.092;9.182;2022-08-21T09:11:15;9.70;;;5.15;;
38851;SDS011;24605;50.092;9.182;2022-08-21T09:13:50;8.57;;;4.13;;
38851;SDS011;24605;50.092;9.182;2022-08-21T09:16:28;14.13;;;5.65;;
38851;SDS011;24605;50.092;9.182;2022-08-21T09:19:10;9.52;;;4.50;;
38851;SDS011;24605;50.092;9.182;2022-08-21T09:21:52;9.13;;;4.32;;
38851;SDS011;24605;50.092;9.182;2022-08-21T09:24:25;11.77;;;5.40;;
38851;SDS011;24605;50.092;9.182;2022-08-21T09:27:00;14.45;;;5.45;;
38851;SDS011;24605;50.092;9.182;2022-08-21T09:29:31;11.80;;;4.95;;
38851;SDS011;24605;50.092;9.182;2022-08-21T09:32:02;9.55;;;5.00;;
38851;SDS011;24605;50.092;9.182;2022-08-21T09:34:31;11.43;;;5.30;;
38851;SDS011;24605;50.092;9.182;2022-08-21T09:36:58;12.15;;;5.63;;
38851;SDS011;24605;50.092;9.182;2022-08-21T09:39:25;11.02;;;4.93;;
38851;SDS011;24605;50.092;9.182;2022-08-21T09:41:55;8.25;;;4.75;;
38851;SDS011;24605;50.092;9.182;2022-08-21T09:44:24;7.65;;;4.20;;
38851;SDS011;24605;50.092;9.182;2022-08-21T09:46:52;8.63;;;4.93;;
38851;SDS011;24605;50.092;9.182;2022-08-21T09:49:26;10.18;;;4.40;;
38851;SDS011;24605;50.092;9.182;2022-08-21T09:54:23;8.68;;;4.90;;
38851;SDS011;24605;50.092;9.182;2022-08-21T09:56:53;7.40;;;4.30;;
38851;SDS011;24605;50.092;9.182;2022-08-21T09:59:39;12.75;;;5.13;;
38851;SDS011;24605;50.092;9.182;2022-08-21T10:02:21;11.50;;;4.25;;
38851;SDS011;24605;50.092;9.182;2022-08-21T10:04:52;13.75;;;4.13;;
38851;SDS011;24605;50.092;9.182;2022-08-21T10:07:22;10.02;;;3.75;;
38851;SDS011;24605;50.092;9.182;2022-08-21T10:10:00;8.45;;;3.65;;
38851;SDS011;24605;50.092;9.182;2022-08-21T10:12:30;10.15;;;3.88;;
38851;SDS011;24605;50.092;9.182;2022-08-21T10:15:07;9.95;;;4.07;;
38851;SDS011;24605;50.092;9.182;2022-08-21T10:17:42;12.27;;;4.22;;
38851;SDS011;24605;50.092;9.182;2022-08-21T10:22:46;10.82;;;4.20;;
38851;SDS011;24605;50.092;9.182;2022-08-21T10:25:23;10.98;;;4.22;;
38851;SDS011;24605;50.092;9.182;2022-08-21T10:27:57;12.75;;;4.18;;
38851;SDS011;24605;50.092;9.182;2022-08-21T10:30:35;7.65;;;4.20;;
38851;SDS011;24605;50.092;9.182;2022-08-21T10:33:16;10.05;;;4.35;;
38851;SDS011;24605;50.092;9.182;2022-08-21T10:35:51;10.98;;;4.32;;
38851;SDS011;24605;50.092;9.182;2022-08-21T10:41:27;7.15;;;3.63;;
38851;SDS011;24605;50.092;9.182;2022-08-21T10:44:08;7.97;;;3.60;;
38851;SDS011;24605;50.092;9.182;2022-08-21T10:46:47;9.63;;;3.85;;
38851;SDS011;24605;50.092;9.182;2022-08-21T10:49:22;7.72;;;3.80;;
38851;SDS011;24605;50.092;9.182;2022-08-21T10:52:02;8.48;;;3.92;;
38851;SDS011;24605;50.092;9.182;2022-08-21T10:54:56;8.93;;;3.85;;
38851;SDS011;24605;50.092;9.182;2022-08-21T10:57:30;10.32;;;4.25;;
38851;SDS011;24605;50.092;9.182;2022-08-21T11:00:04;8.30;;;4.00;;
38851;SDS011;24605;50.092;9.182;2022-08-21T11:02:37;9.18;;;3.85;;
38851;SDS011;24605;50.092;9.182;2022-08-21T11:05:10;9.07;;;3.78;;
38851;SDS011;24605;50.092;9.182;2022-08-21T11:07:39;8.50;;;3.80;;
38851;SDS011;24605;50.092;9.182;2022-08-21T11:10:15;8.45;;;3.40;;
38851;SDS011;24605;50.092;9.182;2022-08-21T11:12:48;8.23;;;3.63;;
38851;SDS011;24605;50.092;9.182;2022-08-21T11:15:27;8.57;;;4.00;;
38851;SDS011;24605;50.092;9.182;2022-08-21T11:18:01;9.82;;;3.85;;
38851;SDS011;24605;50.092;9.182;2022-08-21T11:20:38;9.40;;;3.78;;
38851;SDS011;24605;50.092;9.182;2022-08-21T11:23:11;9.20;;;3.72;;
38851;SDS011;24605;50.092;9.182;2022-08-21T11:25:49;7.65;;;3.78;;
38851;SDS011;24605;50.092;9.182;2022-08-21T11:28:21;8.27;;;3.55;;
38851;SDS011;24605;50.092;9.182;2022-08-21T11:30:56;7.30;;;3.63;;
38851;SDS011;24605;50.092;9.182;2022-08-21T11:33:37;8.88;;;3.40;;
38851;SDS011;24605;50.092;9.182;2022-08-21T11:36:18;7.80;;;3.17;;
38851;SDS011;24605;50.092;9.182;2022-08-21T11:38:52;7.75;;;3.38;;
38851;SDS011;24605;50.092;9.182;2022-08-21T11:41:31;7.93;;;3.90;;
38851;SDS011;24605;50.092;9.182;2022-08-21T11:44:07;10.32;;;4.35;;
38851;SDS011;24605;50.092;9.182;2022-08-21T11:46:42;6.70;;;3.42;;
38851;SDS011;24605;50.092;9.182;2022-08-21T11:49:27;8.85;;;3.38;;
38851;SDS011;24605;50.092;9.182;2022-08-21T11:52:06;7.80;;;3.70;;
38851;SDS011;24605;50.092;9.182;2022-08-21T11:54:39;9.68;;;3.38;;
38851;SDS011;24605;50.092;9.182;2022-08-21T11:57:14;10.65;;;3.78;;
38851;SDS011;24605;50.092;9.182;2022-08-21T11:59:47;8.02;;;3.35;;
38851;SDS011;24605;50.092;9.182;2022-08-21T12:02:18;8.13;;;3.70;;
38851;SDS011;24605;50.092;9.182;2022-08-21T12:04:49;11.15;;;3.92;;
38851;SDS011;24605;50.092;9.182;2022-08-21T12:07:29;7.45;;;3.30;;
38851;SDS011;24605;50.092;9.182;2022-08-21T12:10:04;8.43;;;3.80;;
38851;SDS011;24605;50.092;9.182;2022-08-21T12:12:35;6.28;;;3.53;;
38851;SDS011;24605;50.092;9.182;2022-08-21T12:15:05;10.00;;;3.47;;
38851;SDS011;24605;50.092;9.182;2022-08-21T12:17:50;8.57;;;3.42;;
38851;SDS011;24605;50.092;9.182;2022-08-21T12:20:23;8.63;;;3.50;;
38851;SDS011;24605;50.092;9.182;2022-08-21T12:23:03;7.82;;;3.35;;
38851;SDS011;24605;50.092;9.182;2022-08-21T12:25:36;7.22;;;3.08;;
38851;SDS011;24605;50.092;9.182;2022-08-21T12:28:07;7.22;;;3.58;;
38851;SDS011;24605;50.092;9.182;2022-08-21T12:30:38;7.38;;;3.60;;
38851;SDS011;24605;50.092;9.182;2022-08-21T12:33:18;8.48;;;3.22;;
38851;SDS011;24605;50.092;9.182;2022-08-21T12:35:49;7.00;;;3.40;;
38851;SDS011;24605;50.092;9.182;2022-08-21T12:38:18;9.43;;;3.22;;
38851;SDS011;24605;50.092;9.182;2022-08-21T12:40:50;8.65;;;3.28;;
38851;SDS011;24605;50.092;9.182;2022-08-21T12:43:24;6.40;;;3.30;;
38851;SDS011;24605;50.092;9.182;2022-08-21T12:45:55;11.60;;;4.15;;
38851;SDS011;24605;50.092;9.182;2022-08-21T12:48:25;9.90;;;3.38;;
38851;SDS011;24605;50.092;9.182;2022-08-21T12:50:56;9.23;;;3.70;;
38851;SDS011;24605;50.092;9.182;2022-08-21T12:53:27;7.60;;;3.35;;
38851;SDS011;24605;50.092;9.182;2022-08-21T12:55:56;8.98;;;3.30;;
38851;SDS011;24605;50.092;9.182;2022-08-21T12:58:30;7.25;;;3.13;;
38851;SDS011;24605;50.092;9.182;2022-08-21T13:00:59;7.97;;;3.28;;
38851;SDS011;24605;50.092;9.182;2022-08-21T13:03:30;9.40;;;3.20;;
38851;SDS011;24605;50.092;9.182;2022-08-21T13:06:01;7.32;;;3.33;;
38851;SDS011;24605;50.092;9.182;2022-08-21T13:08:29;6.88;;;3.72;;
38851;SDS011;24605;50.092;9.182;2022-08-21T13:10:57;7.05;;;3.42;;
38851;SDS011;24605;50.092;9.182;2022-08-21T13:13:26;7.60;;;3.20;;
38851;SDS011;24605;50.092;9.182;2022-08-21T13:15:58;7.53;;;3.33;;
38851;SDS011;24605;50.092;9.182;2022-08-21T13:18:27;8.25;;;3.42;;
38851;SDS011;24605;50.092;9.182;2022-08-21T13:21:02;8.93;;;3.33;;
38851;SDS011;24605;50.092;9.182;2022-08-21T13:23:31;7.28;;;2.97;;
38851;SDS011;24605;50.092;9.182;2022-08-21T13:25:58;7.07;;;3.58;;
38851;SDS011;24605;50.092;9.182;2022-08-21T13:28:32;6.57;;;3.55;;
38851;SDS011;24605;50.092;9.182;2022-08-21T13:31:00;8.75;;;3.78;;
38851;SDS011;24605;50.092;9.182;2022-08-21T13:33:27;7.22;;;3.00;;
38851;SDS011;24605;50.092;9.182;2022-08-21T13:35:57;8.30;;;3.13;;
38851;SDS011;24605;50.092;9.182;2022-08-21T13:38:30;7.22;;;3.55;;
38851;SDS011;24605;50.092;9.182;2022-08-21T13:41:01;6.28;;;2.92;;
38851;SDS011;24605;50.092;9.182;2022-08-21T13:43:30;8.43;;;3.30;;
38851;SDS011;24605;50.092;9.182;2022-08-21T13:46:01;7.93;;;3.55;;
38851;SDS011;24605;50.092;9.182;2022-08-21T13:48:33;6.47;;;3.17;;
38851;SDS011;24605;50.092;9.182;2022-08-21T13:51:00;7.45;;;3.63;;
38851;SDS011;24605;50.092;9.182;2022-08-21T13:53:28;7.30;;;3.20;;
38851;SDS011;24605;50.092;9.182;2022-08-21T13:55:56;7.82;;;3.13;;
38851;SDS011;24605;50.092;9.182;2022-08-21T13:58:25;6.63;;;2.85;;
38851;SDS011;24605;50.092;9.182;2022-08-21T14:00:53;6.72;;;2.95;;
38851;SDS011;24605;50.092;9.182;2022-08-21T14:03:31;6.05;;;2.75;;
38851;SDS011;24605;50.092;9.182;2022-08-21T14:05:59;6.95;;;3.03;;
38851;SDS011;24605;50.092;9.182;2022-08-21T14:08:27;5.47;;;2.63;;
38851;SDS011;24605;50.092;9.182;2022-08-21T14:10:59;7.53;;;2.90;;
38851;SDS011;24605;50.092;9.182;2022-08-21T14:13:28;5.30;;;2.42;;
38851;SDS011;24605;50.092;9.182;2022-08-21T14:16:02;5.03;;;2.47;;
38851;SDS011;24605;50.092;9.182;2022-08-21T14:18:44;8.15;;;3.30;;
38851;SDS011;24605;50.092;9.182;2022-08-21T14:21:12;7.35;;;3.05;;
38851;SDS011;24605;50.092;9.182;2022-08-21T14:23:38;7.53;;;2.80;;
38851;SDS011;24605;50.092;9.182;2022-08-21T14:26:06;6.72;;;2.88;;
38851;SDS011;24605;50.092;9.182;2022-08-21T14:28:34;5.22;;;2.80;;
38851;SDS011;24605;50.092;9.182;2022-08-21T14:31:12;8.85;;;3.10;;
38851;SDS011;24605;50.092;9.182;2022-08-21T14:33:41;5.38;;;2.95;;
38851;SDS011;24605;50.092;9.182;2022-08-21T14:36:09;6.65;;;3.05;;
38851;SDS011;24605;50.092;9.182;2022-08-21T14:38:36;7.15;;;2.83;;
38851;SDS011;24605;50.092;9.182;2022-08-21T14:41:08;5.28;;;2.80;;
38851;SDS011;24605;50.092;9.182;2022-08-21T14:43:41;6.03;;;2.72;;
38851;SDS011;24605;50.092;9.182;2022-08-21T14:46:09;6.72;;;3.00;;
38851;SDS011;24605;50.092;9.182;2022-08-21T14:48:36;10.68;;;3.05;;
38851;SDS011;24605;50.092;9.182;2022-08-21T14:51:03;5.90;;;2.60;;
38851;SDS011;24605;50.092;9.182;2022-08-21T14:53:31;7.28;;;2.72;;
38851;SDS011;24605;50.092;9.182;2022-08-21T14:55:57;6.68;;;2.83;;
38851;SDS011;24605;50.092;9.182;2022-08-21T14:58:33;5.88;;;2.80;;
38851;SDS011;24605;50.092;9.182;2022-08-21T15:01:02;4.97;;;2.50;;
38851;SDS011;24605;50.092;9.182;2022-08-21T15:03:29;5.63;;;2.55;;